createdAt,value
2023-02-11T00:01:00.562Z,97626.56
2023-02-11T00:03:27.311Z,97615.06
2023-02-11T00:06:01.456Z,97618.66
2023-02-11T00:08:28.488Z,97615.19
2023-02-11T00:10:57.035Z,97614.38
2023-02-11T00:13:24.468Z,97625.75
2023-02-11T00:15:51.595Z,97626.69
2023-02-11T00:18:18.426Z,97634.88
2023-02-11T00:20:45.066Z,97646.25
2023-02-11T00:23:12.067Z,97650.69
2023-02-11T00:25:40.956Z,97647.88
2023-02-11T00:28:08.199Z,97649.53
2023-02-11T00:30:35.103Z,97659.91
2023-02-11T00:33:02.107Z,97661.06
2023-02-11T00:35:29.001Z,97655.25
2023-02-11T00:37:56.565Z,97657.56
2023-02-11T00:40:24.240Z,97667.38
2023-02-11T00:42:50.857Z,97669.47
2023-02-11T00:45:17.580Z,97666.03
2023-02-11T00:47:44.231Z,97663.41
2023-02-11T00:50:10.844Z,97666.53
2023-02-11T00:52:37.431Z,97669.91
2023-02-11T00:55:04.319Z,97660.94
2023-02-11T00:57:32.422Z,97655.94
2023-02-11T00:59:59.019Z,97657.72
2023-02-11T01:02:25.682Z,97652.06
2023-02-11T01:04:52.354Z,97659.25
2023-02-11T01:07:19.081Z,97664.28
2023-02-11T01:09:45.661Z,97649.75
2023-02-11T01:12:12.260Z,97649.47
2023-02-11T01:14:40.715Z,97642.72
2023-02-11T01:17:07.318Z,97639.34
2023-02-11T01:19:33.997Z,97634.03
2023-02-11T01:22:00.893Z,97629.44
2023-02-11T01:24:27.569Z,97630.56
2023-02-11T01:26:54.256Z,97626.13
2023-02-11T01:29:22.335Z,97619.47
2023-02-11T01:31:49.091Z,97618.31
2023-02-11T01:34:16.071Z,97615.41
2023-02-11T01:36:42.803Z,97614.78
2023-02-11T01:39:09.682Z,97618.09
2023-02-11T01:41:36.805Z,97617.72
2023-02-11T01:44:29.323Z,97610.63
2023-02-11T01:46:56.025Z,97608.50
2023-02-11T01:49:31.642Z,97605.09
2023-02-11T01:52:12.506Z,97601.09
2023-02-11T01:55:04.983Z,97601.72
2023-02-11T01:57:36.418Z,97601.69
2023-02-11T02:00:26.377Z,97593.91
2023-02-11T02:03:10.154Z,97579.19
2023-02-11T02:05:45.760Z,97581.69
2023-02-11T02:08:23.073Z,97578.47
2023-02-11T02:10:56.364Z,97572.59
2023-02-11T02:13:24.183Z,97573.84
2023-02-11T02:16:12.936Z,97574.53
2023-02-11T02:18:52.799Z,97565.00
2023-02-11T02:21:54.875Z,97570.06
2023-02-11T02:24:39.905Z,97564.28
2023-02-11T02:27:30.039Z,97553.00
2023-02-11T02:30:24.307Z,97544.78
2023-02-11T02:33:16.757Z,97550.22
2023-02-11T02:36:18.213Z,97548.84
2023-02-11T02:38:53.913Z,97546.75
2023-02-11T02:41:25.031Z,97543.34
2023-02-11T02:43:52.230Z,97546.06
2023-02-11T02:46:22.299Z,97546.94
2023-02-11T02:48:50.159Z,97539.81
2023-02-11T02:51:25.444Z,97542.63
2023-02-11T02:54:27.582Z,97549.53
2023-02-11T02:57:30.455Z,97542.06
2023-02-11T03:00:12.034Z,97540.53
2023-02-11T03:03:02.619Z,97542.38
2023-02-11T03:05:48.325Z,97546.81
2023-02-11T03:08:43.639Z,97544.19
2023-02-11T03:11:11.130Z,97553.13
2023-02-11T03:13:39.951Z,97545.22
2023-02-11T03:16:14.942Z,97541.31
2023-02-11T03:18:45.848Z,97542.00
2023-02-11T03:21:15.306Z,97532.00
2023-02-11T03:23:54.047Z,97526.44
2023-02-11T03:26:31.868Z,97519.84
2023-02-11T03:29:10.106Z,97525.19
2023-02-11T03:31:59.377Z,97519.50
2023-02-11T03:34:47.651Z,97523.19
2023-02-11T03:37:17.856Z,97516.53
2023-02-11T03:39:51.142Z,97517.69
2023-02-11T03:42:19.445Z,97515.53
2023-02-11T03:44:55.051Z,97514.34
2023-02-11T03:47:26.170Z,97523.69
2023-02-11T03:49:55.423Z,97529.66
2023-02-11T03:52:24.837Z,97533.75
2023-02-11T03:54:55.767Z,97539.66
2023-02-11T03:57:22.434Z,97536.53
2023-02-11T03:59:55.244Z,97536.38
2023-02-11T04:02:28.487Z,97540.75
2023-02-11T04:04:55.156Z,97552.13
2023-02-11T04:07:21.803Z,97554.16
2023-02-11T04:09:48.382Z,97558.97
2023-02-11T04:12:15.180Z,97560.84
2023-02-11T04:14:41.832Z,97567.72
2023-02-11T04:17:08.611Z,97575.78
2023-02-11T04:19:35.260Z,97573.28
2023-02-11T04:22:01.856Z,97574.41
2023-02-11T04:24:28.786Z,97571.53
2023-02-11T04:26:55.868Z,97568.94
2023-02-11T04:29:22.580Z,97552.34
2023-02-11T04:31:49.318Z,97555.31
2023-02-11T04:34:16.462Z,97555.91
2023-02-11T04:36:43.078Z,97544.41
2023-02-11T04:39:09.678Z,97553.88
2023-02-11T04:41:36.617Z,97542.66
2023-02-11T04:44:03.521Z,97549.13
2023-02-11T04:46:30.246Z,97545.34
2023-02-11T04:48:57.286Z,97539.06
2023-02-11T04:51:23.905Z,97540.81
2023-02-11T04:53:50.736Z,97552.19
2023-02-11T04:56:17.308Z,97543.81
2023-02-11T04:58:44.058Z,97539.97
2023-02-11T05:01:13.653Z,97550.19
2023-02-11T05:03:40.727Z,97538.66
2023-02-11T05:06:07.662Z,97537.03
2023-02-11T05:08:34.291Z,97522.88
2023-02-11T05:11:02.233Z,97525.19
2023-02-11T05:13:29.430Z,97529.91
2023-02-11T05:15:56.044Z,97527.47
2023-02-11T05:18:23.212Z,97530.97
2023-02-11T05:20:49.875Z,97529.47
2023-02-11T05:23:16.459Z,97527.78
2023-02-11T05:25:43.221Z,97510.81
2023-02-11T05:28:09.856Z,97513.03
2023-02-11T05:30:36.608Z,97513.16
2023-02-11T05:33:03.281Z,97514.56
2023-02-11T05:35:29.873Z,97508.94
2023-02-11T05:37:56.510Z,97514.06
2023-02-11T05:40:23.103Z,97514.44
2023-02-11T05:42:49.689Z,97514.41
2023-02-11T05:45:16.646Z,97519.69
2023-02-11T05:47:43.268Z,97515.84
2023-02-11T05:50:09.853Z,97511.56
2023-02-11T05:52:36.761Z,97515.09
2023-02-11T05:55:03.936Z,97503.66
2023-02-11T05:57:30.766Z,97493.59
2023-02-11T05:59:57.389Z,97486.78
2023-02-11T06:02:24.037Z,97483.41
2023-02-11T06:04:50.618Z,97491.34
2023-02-11T06:07:17.538Z,97479.63
2023-02-11T06:09:44.157Z,97474.53
2023-02-11T06:12:10.784Z,97457.09
2023-02-11T06:14:37.420Z,97445.81
2023-02-11T06:17:04.030Z,97436.81
2023-02-11T06:19:31.258Z,97439.56
2023-02-11T06:21:57.999Z,97438.78
2023-02-11T06:24:51.025Z,97449.50
2023-02-11T06:27:11.319Z,97463.50
2023-02-11T06:29:37.919Z,97479.09
2023-02-11T06:32:04.684Z,97490.56
2023-02-11T06:34:31.412Z,97496.13
2023-02-11T06:36:58.062Z,97481.00
2023-02-11T06:39:24.673Z,97480.72
2023-02-11T06:41:51.276Z,97488.88
2023-02-11T06:44:17.937Z,97510.25
2023-02-11T06:46:44.554Z,97507.00
2023-02-11T06:49:11.170Z,97499.66
2023-02-11T06:51:37.823Z,97507.78
2023-02-11T06:54:06.300Z,97494.31
2023-02-11T06:56:33.644Z,97514.09
2023-02-11T06:59:00.972Z,97511.84
2023-02-11T07:01:28.234Z,97509.41
2023-02-11T07:03:54.933Z,97516.09
2023-02-11T07:06:23.405Z,97521.66
2023-02-11T07:08:50.316Z,97523.22
2023-02-11T07:11:24.397Z,97521.41
2023-02-11T07:13:53.404Z,97525.69
2023-02-11T07:16:20.535Z,97525.22
2023-02-11T07:18:48.291Z,97525.97
2023-02-11T07:21:18.708Z,97524.00
2023-02-11T07:23:45.814Z,97526.66
2023-02-11T07:26:15.580Z,97541.50
2023-02-11T07:28:42.433Z,97546.25
2023-02-11T07:31:16.616Z,97532.31
2023-02-11T07:33:45.762Z,97526.16
2023-02-11T07:36:14.203Z,97518.56
2023-02-11T07:38:41.285Z,97517.44
2023-02-11T07:41:10.959Z,97525.91
2023-02-11T07:43:39.385Z,97515.44
2023-02-11T07:46:10.456Z,97516.16
2023-02-11T07:48:37.482Z,97520.56
2023-02-11T07:51:24.651Z,97510.81
2023-02-11T07:53:52.127Z,97516.69
2023-02-11T07:56:19.755Z,97511.38
2023-02-11T07:58:46.568Z,97510.91
2023-02-11T08:01:17.152Z,97515.13
2023-02-11T08:03:44.507Z,97507.78
2023-02-11T08:06:14.284Z,97520.22
2023-02-11T08:08:41.557Z,97520.84
2023-02-11T08:11:15.299Z,97523.91
2023-02-11T08:13:42.786Z,97526.88
2023-02-11T08:16:10.159Z,97519.91
2023-02-11T08:18:37.007Z,97522.09
2023-02-11T08:21:05.880Z,97527.53
2023-02-11T08:23:32.506Z,97535.19
2023-02-11T08:26:07.770Z,97525.66
2023-02-11T08:28:39.312Z,97514.44
2023-02-11T08:31:11.654Z,97514.56
2023-02-11T08:33:40.393Z,97520.25
2023-02-11T08:36:11.215Z,97520.19
2023-02-11T08:38:37.905Z,97516.34
2023-02-11T08:41:05.509Z,97518.75
2023-02-11T08:43:33.375Z,97512.53
2023-02-11T08:46:02.205Z,97508.63
2023-02-11T08:48:29.408Z,97515.53
2023-02-11T08:50:56.361Z,97513.91
2023-02-11T08:53:23.168Z,97523.53
2023-02-11T08:55:51.772Z,97525.00
2023-02-11T08:58:19.340Z,97523.47
2023-02-11T09:00:46.737Z,97531.94
2023-02-11T09:03:14.866Z,97530.59
2023-02-11T09:05:46.502Z,97539.50
2023-02-11T09:08:13.579Z,97549.34
2023-02-11T09:10:40.465Z,97546.78
2023-02-11T09:13:07.836Z,97548.94
2023-02-11T09:15:35.018Z,97536.00
2023-02-11T09:18:01.919Z,97527.00
2023-02-11T09:20:28.685Z,97529.25
2023-02-11T09:22:57.514Z,97521.72
2023-02-11T09:25:24.525Z,97524.81
2023-02-11T09:27:52.273Z,97511.81
2023-02-11T09:30:19.180Z,97516.56
2023-02-11T09:32:46.070Z,97510.53
2023-02-11T09:35:12.713Z,97513.41
2023-02-11T09:37:39.303Z,97508.09
2023-02-11T09:40:06.446Z,97519.50
2023-02-11T09:42:48.175Z,97520.38
2023-02-11T09:45:19.811Z,97507.38
2023-02-11T09:47:55.625Z,97505.50
2023-02-11T09:50:39.865Z,97508.38
2023-02-11T09:53:26.618Z,97501.06
2023-02-11T09:55:56.255Z,97512.28
2023-02-11T09:58:28.773Z,97521.28
2023-02-11T10:01:13.630Z,97518.09
2023-02-11T10:04:14.240Z,97516.91
2023-02-11T10:06:46.705Z,97516.72
2023-02-11T10:09:44.117Z,97511.50
2023-02-11T10:12:56.231Z,97508.09
2023-02-11T10:15:39.658Z,97511.66
2023-02-11T10:18:21.460Z,97504.88
2023-02-11T10:20:47.883Z,97505.34
2023-02-11T10:23:42.641Z,97503.97
2023-02-11T10:26:15.148Z,97508.94
2023-02-11T10:28:46.188Z,97506.94
2023-02-11T10:31:26.964Z,97507.47
2023-02-11T10:34:03.121Z,97504.91
2023-02-11T10:36:32.989Z,97507.69
2023-02-11T10:39:12.953Z,97503.63
2023-02-11T10:41:49.273Z,97507.94
2023-02-11T10:44:34.686Z,97513.97
2023-02-11T10:47:21.814Z,97503.06
2023-02-11T10:49:49.073Z,97499.41
2023-02-11T10:52:26.152Z,97486.44
2023-02-11T10:55:01.976Z,97490.16
2023-02-11T10:57:33.723Z,97489.69
2023-02-11T11:00:06.532Z,97471.72
2023-02-11T11:02:38.692Z,97478.16
2023-02-11T11:05:28.478Z,97473.25
2023-02-11T11:07:58.290Z,97473.22
2023-02-11T11:10:37.077Z,97473.78
2023-02-11T11:13:03.678Z,97467.44
2023-02-11T11:15:32.036Z,97467.97
2023-02-11T11:18:21.845Z,97465.72
2023-02-11T11:21:11.476Z,97458.88
2023-02-11T11:23:39.101Z,97459.88
2023-02-11T11:26:15.763Z,97446.28
2023-02-11T11:28:59.761Z,97439.47
2023-02-11T11:31:45.354Z,97438.69
2023-02-11T11:34:23.071Z,97441.94
2023-02-11T11:36:50.489Z,97434.78
2023-02-11T11:39:32.363Z,97435.41
2023-02-11T11:42:23.819Z,97437.66
2023-02-11T11:45:19.583Z,97437.56
2023-02-11T11:47:59.955Z,97430.41
2023-02-11T11:50:42.259Z,97426.00
2023-02-11T11:53:14.912Z,97430.38
2023-02-11T11:55:45.984Z,97416.50
2023-02-11T11:58:21.372Z,97421.84
2023-02-11T12:01:00.598Z,97421.13
2023-02-11T12:04:02.494Z,97425.66
2023-02-11T12:07:06.481Z,97424.91
2023-02-11T12:09:51.066Z,97421.25
2023-02-11T12:12:26.914Z,97416.97
2023-02-11T12:15:22.269Z,97418.81
2023-02-11T12:17:51.726Z,97416.28
2023-02-11T12:20:43.513Z,97423.31
2023-02-11T12:23:16.001Z,97422.63
2023-02-11T12:25:56.999Z,97424.44
2023-02-11T12:28:42.186Z,97424.16
2023-02-11T12:31:27.401Z,97417.44
2023-02-11T12:34:24.815Z,97431.38
2023-02-11T12:37:19.488Z,97420.25
2023-02-11T12:40:11.020Z,97413.44
2023-02-11T12:43:05.075Z,97423.00
2023-02-11T12:45:58.547Z,97413.56
2023-02-11T12:48:35.652Z,97410.06
2023-02-11T12:51:39.960Z,97407.53
2023-02-11T12:54:31.997Z,97412.72
2023-02-11T12:57:11.668Z,97403.16
2023-02-11T12:59:56.311Z,97407.53
2023-02-11T13:02:40.972Z,97398.00
2023-02-11T13:05:25.499Z,97392.81
2023-02-11T13:07:57.173Z,97390.19
2023-02-11T13:10:29.976Z,97386.75
2023-02-11T13:13:17.139Z,97385.03
2023-02-11T13:15:47.698Z,97387.63
2023-02-11T13:18:49.272Z,97378.97
2023-02-11T13:21:15.829Z,97379.81
2023-02-11T13:24:08.011Z,97373.78
2023-02-11T13:26:51.941Z,97374.63
2023-02-11T13:29:49.613Z,97378.97
2023-02-11T13:32:16.440Z,97374.63
2023-02-11T13:34:42.956Z,97379.81
2023-02-11T13:37:47.406Z,97380.66
2023-02-11T13:40:19.793Z,97381.53
2023-02-11T13:42:54.591Z,97383.25
2023-02-11T13:45:45.585Z,97379.81
2023-02-11T13:48:22.982Z,97385.03
2023-02-11T13:50:53.286Z,97377.25
2023-02-11T13:53:20.814Z,97378.09
2023-02-11T13:55:51.240Z,97378.94
2023-02-11T13:58:40.074Z,97374.56
2023-02-11T14:01:07.687Z,97372.88
2023-02-11T14:03:55.802Z,97371.03
2023-02-11T14:06:44.129Z,97369.19
2023-02-11T14:09:35.098Z,97374.34
2023-02-11T14:12:37.273Z,97379.59
2023-02-11T14:15:19.595Z,97373.56
2023-02-11T14:17:46.303Z,97379.50
2023-02-11T14:20:36.635Z,97367.38
2023-02-11T14:23:04.874Z,97374.50
2023-02-11T14:25:32.143Z,97362.38
2023-02-11T14:28:26.673Z,97372.00
2023-02-11T14:31:11.024Z,97362.41
2023-02-11T14:33:40.353Z,97368.56
2023-02-11T14:36:46.199Z,97364.19
2023-02-11T14:39:27.072Z,97368.38
2023-02-11T14:41:54.184Z,97372.78
2023-02-11T14:44:27.827Z,97375.38
2023-02-11T14:46:55.630Z,97367.59
2023-02-11T14:49:35.857Z,97379.75
2023-02-11T14:52:27.841Z,97370.13
2023-02-11T14:55:07.490Z,97374.44
2023-02-11T14:57:35.118Z,97371.84
2023-02-11T15:00:06.002Z,97375.34
2023-02-11T15:02:37.666Z,97376.19
2023-02-11T15:05:26.125Z,97375.38
2023-02-11T15:07:56.351Z,97377.94
2023-02-11T15:10:26.504Z,97374.50
2023-02-11T15:12:53.540Z,97379.72
2023-02-11T15:15:20.353Z,97390.19
2023-02-11T15:17:47.481Z,97388.31
2023-02-11T15:20:25.686Z,97384.94
2023-02-11T15:22:58.766Z,97385.75
2023-02-11T15:25:27.834Z,97389.28
2023-02-11T15:27:57.107Z,97389.16
2023-02-11T15:30:23.769Z,97392.69
2023-02-11T15:32:59.929Z,97390.09
2023-02-11T15:35:40.874Z,97398.84
2023-02-11T15:38:07.946Z,97409.25
2023-02-11T15:40:36.696Z,97397.09
2023-02-11T15:43:09.050Z,97404.03
2023-02-11T15:45:40.246Z,97402.31
2023-02-11T15:48:12.738Z,97397.97
2023-02-11T15:50:41.320Z,97399.72
2023-02-11T15:53:33.065Z,97410.97
2023-02-11T15:56:20.075Z,97411.00
2023-02-11T15:58:49.188Z,97404.94
2023-02-11T16:01:15.883Z,97406.66
2023-02-11T16:03:43.168Z,97411.81
2023-02-11T16:06:24.995Z,97416.13
2023-02-11T16:08:57.731Z,97429.16
2023-02-11T16:11:36.491Z,97424.81
2023-02-11T16:14:32.857Z,97423.06
2023-02-11T16:17:18.422Z,97426.41
2023-02-11T16:19:47.873Z,97425.50
2023-02-11T16:22:18.020Z,97416.75
2023-02-11T16:24:47.433Z,97424.63
2023-02-11T16:27:29.722Z,97419.38
2023-02-11T16:29:58.015Z,97426.25
2023-02-11T16:32:27.215Z,97439.97
2023-02-11T16:34:55.401Z,97436.41
2023-02-11T16:37:22.008Z,97437.16
2023-02-11T16:39:48.579Z,97438.84
2023-02-11T16:42:15.250Z,97443.09
2023-02-11T16:44:41.921Z,97455.78
2023-02-11T16:47:20.168Z,97454.81
2023-02-11T16:49:46.811Z,97462.00
2023-02-11T16:52:15.406Z,97462.75
2023-02-11T16:54:42.205Z,97473.09
2023-02-11T16:57:24.375Z,97465.78
2023-02-11T16:59:52.058Z,97478.03
2023-02-11T17:02:25.780Z,97477.22
2023-02-11T17:04:54.543Z,97493.56
2023-02-11T17:07:21.394Z,97496.78
2023-02-11T17:09:47.993Z,97495.53
2023-02-11T17:12:14.661Z,97494.97
2023-02-11T17:14:41.240Z,97501.72
2023-02-11T17:17:09.061Z,97502.28
2023-02-11T17:19:35.648Z,97503.00
2023-02-11T17:22:02.570Z,97502.88
2023-02-11T17:24:29.127Z,97494.66
2023-02-11T17:26:55.814Z,97505.00
2023-02-11T17:29:24.414Z,97505.22
2023-02-11T17:31:52.407Z,97506.81
2023-02-11T17:34:20.839Z,97515.56
2023-02-11T17:36:47.569Z,97520.53
2023-02-11T17:39:14.210Z,97523.13
2023-02-11T17:41:41.540Z,97522.31
2023-02-11T17:44:10.476Z,97522.38
2023-02-11T17:46:37.061Z,97518.81
2023-02-11T17:49:03.935Z,97521.09
2023-02-11T17:51:34.093Z,97520.88
2023-02-11T17:54:07.105Z,97525.09
2023-02-11T17:56:36.534Z,97528.44
2023-02-11T17:59:03.937Z,97519.09
2023-02-11T18:01:32.719Z,97520.94
2023-02-11T18:03:59.498Z,97527.06
2023-02-11T18:06:26.365Z,97525.44
2023-02-11T18:08:53.004Z,97533.78
2023-02-11T18:11:21.497Z,97537.63
2023-02-11T18:13:54.193Z,97528.75
2023-02-11T18:16:22.001Z,97536.00
2023-02-11T18:18:49.797Z,97538.47
2023-02-11T18:21:19.525Z,97539.94
2023-02-11T18:23:48.158Z,97550.78
2023-02-11T18:26:16.487Z,97557.69
2023-02-11T18:28:45.686Z,97558.44
2023-02-11T18:31:14.085Z,97565.00
2023-02-11T18:33:41.964Z,97560.84
2023-02-11T18:36:11.208Z,97554.97
2023-02-11T18:38:38.296Z,97570.03
2023-02-11T18:41:07.217Z,97572.94
2023-02-11T18:43:34.514Z,97566.41
2023-02-11T18:46:03.121Z,97564.66
2023-02-11T18:48:29.828Z,97566.13
2023-02-11T18:50:56.469Z,97566.13
2023-02-11T18:53:24.581Z,97575.25
2023-02-11T18:55:53.707Z,97573.16
2023-02-11T18:58:21.351Z,97575.41
2023-02-11T19:00:49.338Z,97582.22
2023-02-11T19:03:16.325Z,97584.13
2023-02-11T19:05:44.864Z,97588.00
2023-02-11T19:08:11.886Z,97588.50
2023-02-11T19:10:43.002Z,97586.19
2023-02-11T19:13:11.407Z,97581.00
2023-02-11T19:15:45.428Z,97583.91
2023-02-11T19:18:14.360Z,97587.41
2023-02-11T19:20:44.418Z,97584.94
2023-02-11T19:23:11.583Z,97583.59
2023-02-11T19:25:45.578Z,97583.66
2023-02-11T19:28:13.057Z,97587.75
2023-02-11T19:30:40.193Z,97580.91
2023-02-11T19:33:09.783Z,97571.53
2023-02-11T19:35:36.793Z,97582.50
2023-02-11T19:38:04.998Z,97570.28
2023-02-11T19:40:31.906Z,97571.97
2023-02-11T19:42:58.794Z,97573.00
2023-02-11T19:45:26.892Z,97576.75
2023-02-11T19:47:57.179Z,97574.41
2023-02-11T19:50:24.202Z,97568.09
2023-02-11T19:52:50.951Z,97562.56
2023-02-11T19:55:17.655Z,97565.28
2023-02-11T19:57:44.736Z,97562.16
2023-02-11T20:00:11.882Z,97562.81
2023-02-11T20:02:39.640Z,97566.66
2023-02-11T20:05:06.937Z,97564.06
2023-02-11T20:07:33.552Z,97553.56
2023-02-11T20:10:00.231Z,97561.88
2023-02-11T20:12:27.121Z,97565.53
2023-02-11T20:14:53.698Z,97555.78
2023-02-11T20:17:20.326Z,97565.31
2023-02-11T20:19:46.903Z,97567.94
2023-02-11T20:22:13.540Z,97561.56
2023-02-11T20:24:40.229Z,97561.63
2023-02-11T20:27:08.468Z,97566.03
2023-02-11T20:29:35.239Z,97567.63
2023-02-11T20:32:03.364Z,97565.97
2023-02-11T20:34:30.048Z,97562.50
2023-02-11T20:36:56.663Z,97565.44
2023-02-11T20:39:24.512Z,97567.09
2023-02-11T20:41:51.837Z,97566.19
2023-02-11T20:44:19.331Z,97566.13
2023-02-11T20:46:46.618Z,97569.69
2023-02-11T20:49:20.033Z,97566.38
2023-02-11T20:51:47.088Z,97572.44
2023-02-11T20:54:19.484Z,97573.94
2023-02-11T20:56:48.192Z,97564.91
2023-02-11T20:59:16.871Z,97566.38
2023-02-11T21:01:46.853Z,97562.91
2023-02-11T21:04:17.335Z,97567.63
2023-02-11T21:06:47.359Z,97565.13
2023-02-11T21:09:17.334Z,97569.13
2023-02-11T21:11:43.946Z,97573.00
2023-02-11T21:14:11.934Z,97573.19
2023-02-11T21:16:39.828Z,97565.38
2023-02-11T21:19:07.019Z,97573.53
2023-02-11T21:21:36.310Z,97576.84
2023-02-11T21:24:03.472Z,97575.06
2023-02-11T21:26:30.084Z,97575.16
2023-02-11T21:28:56.813Z,97584.97
2023-02-11T21:31:26.900Z,97588.75
2023-02-11T21:33:57.213Z,97582.84
2023-02-11T21:36:28.258Z,97584.66
2023-02-11T21:38:54.926Z,97579.50
2023-02-11T21:41:22.537Z,97590.03
2023-02-11T21:43:50.290Z,97581.53
2023-02-11T21:46:18.436Z,97579.69
2023-02-11T21:48:45.106Z,97583.94
2023-02-11T21:51:18.129Z,97588.50
2023-02-11T21:53:45.097Z,97594.72
2023-02-11T21:56:15.304Z,97599.75
2023-02-11T21:58:42.314Z,97601.38
2023-02-11T22:01:17.370Z,97596.41
2023-02-11T22:03:45.186Z,97594.47
2023-02-11T22:06:14.444Z,97598.34
2023-02-11T22:08:41.546Z,97590.16
2023-02-11T22:11:12.292Z,97584.56
2023-02-11T22:13:40.014Z,97593.09
2023-02-11T22:16:09.932Z,97595.56
2023-02-11T22:18:37.578Z,97608.53
2023-02-11T22:21:09.299Z,97610.22
2023-02-11T22:23:36.852Z,97612.63
2023-02-11T22:26:08.558Z,97610.75
2023-02-11T22:28:35.587Z,97611.88
2023-02-11T22:31:02.741Z,97610.38
2023-02-11T22:33:29.356Z,97606.59
2023-02-11T22:36:05.013Z,97616.38
2023-02-11T22:38:33.090Z,97611.31
2023-02-11T22:41:06.042Z,97611.31
2023-02-11T22:43:32.738Z,97608.00
2023-02-11T22:46:03.980Z,97616.28
2023-02-11T22:48:30.851Z,97617.50
2023-02-11T22:51:03.302Z,97617.78
2023-02-11T22:53:30.347Z,97623.66
2023-02-11T22:55:57.482Z,97613.97
2023-02-11T22:58:24.818Z,97612.50
2023-02-11T23:00:51.443Z,97620.88
2023-02-11T23:03:18.059Z,97623.13
2023-02-11T23:05:44.677Z,97627.34
2023-02-11T23:08:12.083Z,97624.97
2023-02-11T23:10:39.835Z,97622.47
2023-02-11T23:13:07.254Z,97621.25
2023-02-11T23:15:34.325Z,97625.34
2023-02-11T23:18:00.960Z,97614.41
2023-02-11T23:20:27.610Z,97610.34
2023-02-11T23:22:54.553Z,97619.06
2023-02-11T23:25:21.147Z,97623.66
2023-02-11T23:27:47.771Z,97621.47
2023-02-11T23:30:14.688Z,97629.84
2023-02-11T23:32:41.396Z,97630.50
2023-02-11T23:35:08.057Z,97630.91
2023-02-11T23:37:34.707Z,97625.53
2023-02-11T23:40:01.332Z,97626.16
2023-02-11T23:42:29.155Z,97619.50
2023-02-11T23:44:55.794Z,97627.38
2023-02-11T23:47:22.405Z,97622.44
2023-02-11T23:49:48.982Z,97621.44
2023-02-11T23:52:15.578Z,97623.63
2023-02-11T23:54:43.346Z,97626.00
2023-02-11T23:57:09.992Z,97622.19
2023-02-11T23:59:36.592Z,97622.22
